Time;durP1;ratioP1;P1;durP2;ratioP2;P2;SDS_P1;SDS_P2;PMS_P1;PMS_P2;Temp;Humidity;BMP_temperature;BMP_pressure;BME280_temperature;BME280_humidity;BME280_pressure;Samples;Min_cycle;Max_cycle;Signal;HPM_P1;HPM_P2
2023/04/10 00:00:42;;;;;;;24.80;14.40;;;8.70;67.10;;;;;;5066963;28;20931;-63
2023/04/10 00:03:16;;;;;;;22.90;13.43;;;8.70;67.10;;;;;;5080831;28;20960;-63
2023/04/10 00:05:48;;;;;;;23.53;14.50;;;8.70;67.10;;;;;;5083837;28;20966;-63
2023/04/10 00:08:21;;;;;;;24.73;15.33;;;8.70;67.20;;;;;;5080509;28;20480;-63
2023/04/10 00:10:54;;;;;;;22.37;14.50;;;8.70;67.20;;;;;;5084274;28;20496;-63
2023/04/10 00:13:26;;;;;;;22.20;13.90;;;8.70;67.20;;;;;;5083734;28;20472;-63
2023/04/10 00:16:04;;;;;;;28.03;16.10;;;8.60;66.90;;;;;;5084134;28;20776;-64
2023/04/10 00:18:36;;;;;;;40.70;23.27;;;8.50;66.90;;;;;;5083140;28;20810;-63
2023/04/10 00:21:14;;;;;;;38.22;21.20;;;8.40;67.00;;;;;;5080447;28;20224;-63
2023/04/10 00:23:53;;;;;;;32.87;18.97;;;8.40;67.30;;;;;;5082541;28;20224;-63
2023/04/10 00:26:33;;;;;;;29.97;17.70;;;8.40;67.40;;;;;;5080520;28;20506;-63
2023/04/10 00:29:07;;;;;;;26.85;17.75;;;8.40;67.30;;;;;;5080566;28;20558;-63
2023/04/10 00:31:44;;;;;;;23.67;15.40;;;8.40;67.40;;;;;;5068201;28;20237;-63
2023/04/10 00:34:15;;;;;;;21.70;14.00;;;8.30;67.30;;;;;;5083629;28;20532;-63
2023/04/10 00:37:06;;;;;;;21.80;14.13;;;8.30;67.30;;;;;;5078419;28;20556;-64
2023/04/10 00:39:37;;;;;;;20.38;13.57;;;8.30;67.40;;;;;;5081649;28;20892;-63
2023/04/10 00:42:15;;;;;;;22.35;14.98;;;8.30;67.40;;;;;;5081471;28;20275;-63
2023/04/10 00:44:45;;;;;;;22.83;14.33;;;8.30;67.20;;;;;;5086697;28;20953;-64
2023/04/10 00:47:15;;;;;;;22.10;15.13;;;8.20;67.10;;;;;;5076277;28;21018;-63
2023/04/10 00:49:54;;;;;;;33.10;20.07;;;8.10;67.00;;;;;;5081062;28;20904;-63
2023/04/10 00:52:29;;;;;;;28.42;18.50;;;8.00;67.10;;;;;;5062580;28;20513;-64
2023/04/10 00:55:00;;;;;;;27.60;18.00;;;7.90;67.30;;;;;;5067635;28;20218;-63
2023/04/10 00:57:35;;;;;;;35.90;22.55;;;7.90;67.50;;;;;;5080545;28;20473;-63
2023/04/10 01:00:07;;;;;;;47.78;28.85;;;7.90;67.60;;;;;;5076201;28;20220;-64
2023/04/10 01:02:40;;;;;;;37.55;23.33;;;8.00;67.50;;;;;;5077075;28;20366;-63
2023/04/10 01:05:22;;;;;;;38.17;22.00;;;8.00;67.60;;;;;;5080121;28;20627;-63
2023/04/10 01:08:10;;;;;;;32.30;21.27;;;8.00;67.60;;;;;;5079824;28;20927;-63
2023/04/10 01:10:50;;;;;;;27.60;17.95;;;8.00;67.60;;;;;;5065166;28;20457;-64
2023/04/10 01:13:27;;;;;;;29.23;16.23;;;8.00;67.80;;;;;;5076181;28;20201;-63
2023/04/10 01:16:11;;;;;;;29.63;18.13;;;8.00;67.60;;;;;;5060606;28;20293;-63
2023/04/10 01:18:56;;;;;;;25.17;17.10;;;8.00;67.50;;;;;;5059041;28;20946;-64
2023/04/10 01:21:30;;;;;;;29.20;17.77;;;8.00;67.60;;;;;;5063187;28;20575;-63
2023/04/10 01:24:24;;;;;;;26.30;16.25;;;7.90;67.60;;;;;;5078595;28;20464;-63
2023/04/10 01:27:12;;;;;;;31.52;19.45;;;7.90;67.60;;;;;;5078977;28;20219;-63
2023/04/10 01:29:58;;;;;;;27.80;17.13;;;7.90;67.70;;;;;;5083458;28;20662;-63
2023/04/10 01:32:39;;;;;;;42.13;25.88;;;7.80;67.70;;;;;;5059533;28;20234;-63
2023/04/10 01:35:15;;;;;;;34.35;21.83;;;7.80;67.80;;;;;;5083107;28;20226;-63
2023/04/10 01:37:51;;;;;;;27.05;17.20;;;7.80;67.90;;;;;;5065816;28;20224;-63
2023/04/10 01:40:31;;;;;;;23.85;15.57;;;7.80;67.90;;;;;;5077703;28;20927;-63
2023/04/10 01:43:06;;;;;;;23.13;16.33;;;7.80;67.80;;;;;;5077797;28;20231;-63
2023/04/10 01:45:56;;;;;;;29.65;16.65;;;7.80;67.80;;;;;;5080046;28;20216;-63
2023/04/10 01:48:30;;;;;;;22.73;16.10;;;7.80;67.80;;;;;;5048839;28;20259;-62
2023/04/10 01:51:07;;;;;;;26.33;14.77;;;7.70;67.90;;;;;;5077291;28;20885;-63
2023/04/10 01:53:45;;;;;;;24.02;14.27;;;7.70;68.00;;;;;;5063586;28;20220;-63
2023/04/10 01:56:20;;;;;;;19.92;13.93;;;7.70;68.00;;;;;;5063752;28;20862;-63
2023/04/10 01:58:56;;;;;;;20.58;13.90;;;7.70;68.10;;;;;;5059593;28;20221;-62
2023/04/10 02:01:31;;;;;;;21.83;14.88;;;7.70;68.10;;;;;;5075156;28;20233;-63
2023/04/10 02:04:16;;;;;;;25.45;16.58;;;7.70;68.10;;;;;;5059662;28;20209;-62
2023/04/10 02:06:57;;;;;;;23.25;15.02;;;7.60;67.90;;;;;;5079185;28;20301;-62
2023/04/10 02:09:39;;;;;;;24.92;14.77;;;7.60;67.90;;;;;;5073535;28;20300;-63
2023/04/10 02:12:16;;;;;;;28.85;17.95;;;7.50;68.00;;;;;;5078702;28;20236;-62
2023/04/10 02:14:50;;;;;;;22.08;13.40;;;7.40;68.10;;;;;;5081117;28;20205;-63
2023/04/10 02:17:29;;;;;;;19.50;13.13;;;7.40;68.10;;;;;;5078277;28;20282;-63
2023/04/10 02:20:09;;;;;;;17.80;11.85;;;7.40;68.20;;;;;;5079687;28;20295;-63
2023/04/10 02:22:43;;;;;;;21.58;14.15;;;7.40;68.20;;;;;;5072896;28;20521;-63
2023/04/10 02:25:19;;;;;;;24.25;16.48;;;7.30;68.20;;;;;;5061010;28;20216;-62
2023/04/10 02:27:52;;;;;;;48.67;25.80;;;7.20;68.10;;;;;;5058349;28;20221;-63
2023/04/10 02:30:28;;;;;;;35.85;22.45;;;7.20;68.00;;;;;;5078073;28;20197;-63
2023/04/10 02:33:11;;;;;;;53.58;28.67;;;7.00;68.00;;;;;;5080061;28;20218;-63
2023/04/10 02:35:43;;;;;;;41.75;24.90;;;6.90;68.20;;;;;;5076033;28;20203;-63
2023/04/10 02:38:22;;;;;;;49.28;25.98;;;6.90;68.30;;;;;;5074790;28;20206;-62
2023/04/10 02:41:01;;;;;;;49.33;24.65;;;6.90;68.50;;;;;;5076281;28;20223;-63
2023/04/10 02:43:31;;;;;;;43.10;24.80;;;6.80;68.50;;;;;;5060271;28;20214;-63
2023/04/10 02:46:02;;;;;;;50.28;29.17;;;6.80;68.60;;;;;;5062492;28;20212;-63
2023/04/10 02:48:44;;;;;;;26.63;18.48;;;6.70;68.70;;;;;;5080208;28;20212;-63
2023/04/10 02:51:22;;;;;;;26.05;17.55;;;6.60;68.70;;;;;;5081964;28;20718;-63
2023/04/10 02:53:53;;;;;;;29.58;17.58;;;6.60;68.80;;;;;;5062432;28;20213;-63
2023/04/10 02:56:37;;;;;;;27.98;17.40;;;6.60;69.00;;;;;;5069243;28;20266;-62
2023/04/10 02:59:08;;;;;;;28.13;18.20;;;6.60;69.20;;;;;;5086748;28;20194;-63
2023/04/10 03:01:48;;;;;;;25.40;14.98;;;6.70;69.30;;;;;;5088601;28;20910;-63
2023/04/10 03:04:24;;;;;;;27.35;15.75;;;6.80;69.30;;;;;;5082443;28;20213;-63
2023/04/10 03:06:58;;;;;;;26.52;15.65;;;6.80;69.20;;;;;;5069692;28;20314;-63
2023/04/10 03:09:40;;;;;;;24.38;14.50;;;6.80;69.00;;;;;;5086920;28;20202;-63
2023/04/10 03:12:15;;;;;;;23.63;15.68;;;6.80;69.00;;;;;;5081961;28;20706;-63
2023/04/10 03:14:47;;;;;;;27.95;17.33;;;6.70;68.70;;;;;;5088980;28;20213;-63
2023/04/10 03:17:23;;;;;;;29.45;18.35;;;6.60;68.70;;;;;;5067814;28;20196;-63
2023/04/10 03:20:03;;;;;;;28.02;18.00;;;6.60;68.90;;;;;;5083543;28;20632;-63
2023/04/10 03:22:35;;;;;;;47.55;25.65;;;6.60;69.00;;;;;;5083159;28;20216;-63
2023/04/10 03:25:13;;;;;;;38.45;22.67;;;6.50;68.80;;;;;;5066603;28;20216;-63
2023/04/10 03:27:49;;;;;;;36.10;22.10;;;6.40;68.80;;;;;;5083724;28;20291;-63
2023/04/10 03:30:23;;;;;;;30.00;18.95;;;6.30;68.90;;;;;;5079400;28;20221;-63
2023/04/10 03:32:54;;;;;;;34.17;21.20;;;6.30;69.00;;;;;;5067274;28;20546;-63
2023/04/10 03:35:30;;;;;;;36.83;21.88;;;6.20;69.00;;;;;;5084126;28;20207;-63
2023/04/10 03:38:14;;;;;;;40.67;22.95;;;6.20;69.10;;;;;;5061252;28;20641;-63
2023/04/10 03:40:49;;;;;;;32.58;20.88;;;6.10;69.30;;;;;;5069076;28;20204;-63
2023/04/10 03:43:25;;;;;;;28.90;18.48;;;6.10;69.40;;;;;;5084533;28;20634;-62
2023/04/10 03:45:59;;;;;;;32.08;18.92;;;6.10;69.70;;;;;;5066726;28;20204;-62
2023/04/10 03:48:32;;;;;;;27.92;18.00;;;6.20;69.80;;;;;;5072709;28;20199;-63
2023/04/10 03:51:14;;;;;;;24.88;16.80;;;6.30;69.70;;;;;;5064776;28;20626;-62
2023/04/10 03:53:44;;;;;;;28.15;17.45;;;6.40;69.70;;;;;;5064588;28;20263;-62
2023/04/10 03:56:27;;;;;;;27.83;17.35;;;6.40;69.60;;;;;;5083702;28;20203;-62
2023/04/10 03:59:01;;;;;;;30.85;18.85;;;6.40;69.60;;;;;;5083901;28;20209;-63
2023/04/10 04:01:41;;;;;;;25.90;16.98;;;6.40;69.60;;;;;;5086578;28;20219;-63
2023/04/10 04:04:14;;;;;;;23.00;15.35;;;6.50;69.60;;;;;;5083944;28;20204;-63
2023/04/10 04:07:06;;;;;;;23.65;15.75;;;6.50;69.60;;;;;;5083049;28;20307;-62
2023/04/10 04:10:05;;;;;;;25.25;16.35;;;6.50;69.50;;;;;;5051892;28;20551;-62
2023/04/10 04:13:06;;;;;;;27.27;16.70;;;6.40;69.40;;;;;;5077889;28;20222;-63
2023/04/10 04:16:15;;;;;;;24.95;16.05;;;6.40;69.50;;;;;;5083658;28;20208;-62
2023/04/10 04:18:54;;;;;;;25.35;17.25;;;6.40;69.50;;;;;;5081052;28;20712;-62
2023/04/10 04:21:40;;;;;;;28.25;18.02;;;6.40;69.50;;;;;;5066464;28;20240;-63
2023/04/10 04:24:35;;;;;;;27.17;18.27;;;6.40;69.50;;;;;;5071112;28;20887;-63
2023/04/10 04:27:27;;;;;;;31.55;20.08;;;6.40;69.50;;;;;;5084427;28;20213;-63
2023/04/10 04:30:25;;;;;;;32.67;20.00;;;6.40;69.40;;;;;;5082306;28;20212;-62
2023/04/10 04:33:11;;;;;;;32.92;19.50;;;6.40;69.60;;;;;;5080120;28;20506;-63
2023/04/10 04:36:11;;;;;;;30.52;19.98;;;6.40;69.60;;;;;;5083375;28;20692;-63
2023/04/10 04:38:59;;;;;;;32.10;18.90;;;6.40;69.60;;;;;;5080866;28;20235;-62
2023/04/10 04:42:09;;;;;;;37.25;20.90;;;6.40;69.70;;;;;;5055748;28;20229;-63
2023/04/10 04:44:44;;;;;;;31.17;18.70;;;6.40;69.60;;;;;;5083217;28;20237;-63
2023/04/10 04:47:44;;;;;;;28.63;18.70;;;6.40;69.70;;;;;;5085902;28;20226;-63
2023/04/10 04:50:38;;;;;;;26.85;16.23;;;6.50;69.80;;;;;;5082529;28;20218;-63
2023/04/10 04:53:32;;;;;;;25.90;17.55;;;6.50;69.80;;;;;;5080637;28;20219;-63
2023/04/10 04:56:28;;;;;;;27.27;17.88;;;6.50;69.70;;;;;;5075752;28;20217;-63
2023/04/10 04:59:30;;;;;;;32.35;19.45;;;6.50;69.60;;;;;;5081915;28;20322;-63
2023/04/10 05:02:41;;;;;;;34.83;19.50;;;6.50;69.60;;;;;;5063750;28;20236;-63
2023/04/10 05:05:45;;;;;;;28.00;17.27;;;6.50;69.70;;;;;;5067114;28;20225;-62
2023/04/10 05:08:34;;;;;;;26.77;16.70;;;6.50;69.80;;;;;;5079942;28;20216;-62
2023/04/10 05:11:49;;;;;;;28.50;16.50;;;6.50;69.80;;;;;;5063866;28;20236;-62
2023/04/10 05:14:46;;;;;;;25.90;17.00;;;6.60;69.80;;;;;;5084868;28;20205;-63
2023/04/10 05:17:39;;;;;;;28.10;17.15;;;6.90;71.60;;;;;;5081281;28;21016;-63
2023/04/10 05:20:38;;;;;;;28.35;17.40;;;7.90;72.40;;;;;;5076330;28;20206;-63
2023/04/10 05:23:44;;;;;;;26.05;17.42;;;9.10;71.30;;;;;;5011028;28;20244;-63
2023/04/10 05:26:23;;;;;;;26.53;18.13;;;10.00;69.50;;;;;;5082010;28;20211;-63
2023/04/10 05:29:00;;;;;;;26.63;17.00;;;10.30;68.10;;;;;;5067120;28;21035;-63
2023/04/10 05:31:43;;;;;;;27.50;17.43;;;10.50;67.40;;;;;;5076757;28;20863;-62
2023/04/10 05:34:18;;;;;;;28.30;18.13;;;10.60;66.70;;;;;;5082233;28;20464;-62
2023/04/10 05:37:28;;;;;;;27.63;19.33;;;10.50;66.50;;;;;;5086516;28;20987;-63
2023/04/10 05:40:07;;;;;;;25.60;17.20;;;10.80;67.50;;;;;;5080393;28;20460;-63
2023/04/10 05:42:57;;;;;;;30.43;17.37;;;11.30;67.20;;;;;;5081239;28;20480;-63
2023/04/10 05:45:54;;;;;;;21.17;14.90;;;11.80;66.30;;;;;;5077258;28;20476;-63
2023/04/10 05:48:54;;;;;;;28.07;16.67;;;12.30;65.60;;;;;;5079661;28;20962;-63
2023/04/10 05:52:04;;;;;;;27.57;18.10;;;12.30;63.40;;;;;;5076983;28;20473;-63
2023/04/10 05:54:56;;;;;;;27.27;18.20;;;11.50;62.80;;;;;;5079044;28;20465;-62
2023/04/10 05:57:31;;;;;;;30.87;19.70;;;10.80;63.10;;;;;;5080474;28;20450;-63
2023/04/10 06:00:23;;;;;;;27.27;19.03;;;10.20;63.50;;;;;;5060299;28;20454;-63
2023/04/10 06:03:26;;;;;;;27.60;18.27;;;9.70;64.20;;;;;;5078996;28;20539;-63
2023/04/10 06:06:12;;;;;;;32.57;17.50;;;9.20;64.70;;;;;;5081220;28;20464;-63
2023/04/10 06:08:45;;;;;;;30.77;19.00;;;8.90;65.20;;;;;;5078709;28;20457;-63
2023/04/10 06:11:25;;;;;;;30.03;19.90;;;8.70;65.50;;;;;;5062645;28;20454;-64
2023/04/10 06:13:57;;;;;;;30.42;19.27;;;8.60;65.80;;;;;;5079801;28;20465;-63
2023/04/10 06:16:36;;;;;;;33.63;21.38;;;8.40;66.00;;;;;;5082493;28;20213;-63
2023/04/10 06:19:09;;;;;;;29.00;19.37;;;8.30;66.40;;;;;;5063519;28;20271;-63
2023/04/10 06:21:47;;;;;;;30.17;20.03;;;8.30;66.80;;;;;;5076288;28;20454;-63
2023/04/10 06:24:31;;;;;;;30.60;17.80;;;8.20;67.20;;;;;;5081550;28;20480;-63
2023/04/10 06:27:08;;;;;;;30.30;19.13;;;8.20;67.40;;;;;;5080553;28;20456;-63
2023/04/10 06:29:41;;;;;;;30.93;20.27;;;8.20;67.60;;;;;;5079256;28;20474;-63
2023/04/10 06:32:14;;;;;;;31.58;20.23;;;8.20;67.80;;;;;;5078213;28;20484;-62
2023/04/10 06:34:50;;;;;;;27.95;18.73;;;8.20;68.00;;;;;;5081286;28;20209;-62
2023/04/10 06:37:33;;;;;;;30.70;19.50;;;8.30;68.30;;;;;;5064137;28;20215;-63
2023/04/10 06:40:16;;;;;;;30.05;19.48;;;8.30;68.60;;;;;;5083438;28;20214;-63
2023/04/10 06:42:51;;;;;;;29.43;20.13;;;8.30;68.80;;;;;;5076589;28;20316;-62
2023/04/10 06:45:39;;;;;;;27.42;19.02;;;8.40;68.90;;;;;;5079227;28;20552;-62
2023/04/10 06:48:11;;;;;;;30.17;19.40;;;8.40;69.20;;;;;;5076816;28;20234;-62
2023/04/10 06:50:43;;;;;;;31.20;20.63;;;8.50;69.40;;;;;;5078757;28;20236;-62
2023/04/10 06:53:18;;;;;;;32.23;20.23;;;8.60;69.60;;;;;;5079259;28;20213;-62
2023/04/10 06:55:52;;;;;;;29.60;19.17;;;8.60;69.80;;;;;;5081004;28;20525;-63
2023/04/10 06:58:33;;;;;;;28.95;19.45;;;8.70;69.90;;;;;;5080368;28;20526;-63
2023/04/10 07:01:07;;;;;;;29.35;19.90;;;8.80;70.00;;;;;;5078537;28;20251;-62
2023/04/10 07:03:35;;;;;;;31.03;20.87;;;8.80;70.20;;;;;;5077901;28;20768;-62
2023/04/10 07:06:13;;;;;;;33.40;21.43;;;8.90;70.30;;;;;;5073926;28;20473;-63
2023/04/10 07:08:53;;;;;;;30.10;19.70;;;9.00;70.50;;;;;;5059102;28;20460;-62
2023/04/10 07:11:33;;;;;;;29.83;18.07;;;9.00;70.60;;;;;;5081947;28;20555;-63
2023/04/10 07:14:14;;;;;;;31.00;19.80;;;9.10;70.70;;;;;;5060692;28;20465;-63
2023/04/10 07:16:47;;;;;;;28.70;18.13;;;9.20;70.90;;;;;;5077767;28;20456;-63
2023/04/10 07:19:16;;;;;;;24.90;17.17;;;9.30;70.90;;;;;;5080298;28;20549;-63
2023/04/10 07:21:48;;;;;;;27.10;18.50;;;9.40;71.00;;;;;;5076744;28;20469;-62
2023/04/10 07:24:23;;;;;;;28.63;18.00;;;9.50;71.00;;;;;;5083510;28;20477;-63
2023/04/10 07:26:56;;;;;;;28.50;17.30;;;9.60;71.20;;;;;;5080159;28;20465;-63
2023/04/10 07:29:33;;;;;;;27.33;18.00;;;9.70;71.30;;;;;;5083748;28;20451;-63
2023/04/10 07:32:04;;;;;;;24.87;15.57;;;9.80;71.50;;;;;;5077607;28;20520;-62
2023/04/10 07:34:43;;;;;;;22.23;15.07;;;9.90;71.50;;;;;;5060696;28;20467;-63
2023/04/10 07:37:22;;;;;;;24.20;15.63;;;10.00;71.40;;;;;;5079262;28;20473;-63
2023/04/10 07:40:08;;;;;;;28.80;17.63;;;10.10;71.40;;;;;;5083714;28;20468;-63
2023/04/10 07:42:41;;;;;;;25.60;16.33;;;10.20;71.20;;;;;;5085261;28;20813;-62
2023/04/10 07:45:21;;;;;;;20.73;13.70;;;10.40;71.10;;;;;;5083944;28;20574;-63
2023/04/10 07:47:54;;;;;;;26.83;15.87;;;10.50;70.80;;;;;;5082373;28;21052;-62
2023/04/10 07:50:24;;;;;;;24.43;15.60;;;10.60;70.70;;;;;;5081224;28;21961;-63
2023/04/10 07:52:58;;;;;;;23.73;15.77;;;10.70;70.50;;;;;;5082118;28;20462;-63
2023/04/10 07:55:49;;;;;;;23.80;15.73;;;10.70;70.40;;;;;;5084649;28;20473;-63
2023/04/10 07:58:26;;;;;;;25.40;16.57;;;10.70;70.30;;;;;;5082534;28;20453;-62
2023/04/10 08:00:57;;;;;;;23.70;15.67;;;10.80;70.10;;;;;;5063621;28;21110;-63
2023/04/10 08:03:43;;;;;;;23.90;15.90;;;10.80;70.10;;;;;;5070699;28;21041;-63
2023/04/10 08:06:18;;;;;;;27.73;16.87;;;10.80;70.00;;;;;;5080364;28;20490;-62
2023/04/10 08:08:57;;;;;;;20.90;13.93;;;10.90;70.00;;;;;;5079317;28;20556;-63
2023/04/10 08:11:31;;;;;;;23.87;16.57;;;10.90;69.80;;;;;;5072446;28;20465;-63
2023/04/10 08:14:16;;;;;;;26.87;16.33;;;10.90;69.80;;;;;;5081679;28;20452;-63
2023/04/10 08:16:50;;;;;;;28.70;18.70;;;11.00;69.80;;;;;;5082945;28;20478;-62
2023/04/10 08:19:24;;;;;;;26.40;19.43;;;11.10;69.60;;;;;;5082350;28;20449;-63
2023/04/10 08:22:04;;;;;;;23.47;15.87;;;11.10;69.60;;;;;;5087400;28;20461;-63
2023/04/10 08:24:45;;;;;;;23.70;16.10;;;11.10;69.60;;;;;;5080498;28;21326;-63
2023/04/10 08:27:27;;;;;;;24.33;15.20;;;11.20;69.60;;;;;;5085071;28;20468;-63
2023/04/10 08:30:07;;;;;;;25.30;17.33;;;11.30;69.20;;;;;;5083203;28;20472;-63
2023/04/10 08:32:38;;;;;;;23.80;15.83;;;11.30;68.90;;;;;;5078957;28;20990;-63
2023/04/10 08:35:12;;;;;;;22.90;16.40;;;11.30;69.00;;;;;;5083939;28;20451;-63
2023/04/10 08:37:51;;;;;;;23.67;14.93;;;11.40;69.00;;;;;;5082780;28;20474;-63
2023/04/10 08:40:43;;;;;;;23.27;14.73;;;11.50;68.90;;;;;;5083497;28;21285;-62
2023/04/10 08:43:23;;;;;;;23.37;14.70;;;11.60;68.90;;;;;;5080466;28;20450;-63
2023/04/10 08:45:58;;;;;;;21.77;14.57;;;11.70;68.80;;;;;;5079475;28;20482;-63
2023/04/10 08:48:35;;;;;;;20.77;14.77;;;11.70;68.60;;;;;;5077803;28;20555;-64
2023/04/10 08:51:18;;;;;;;21.23;14.30;;;11.80;68.50;;;;;;5083480;28;20467;-63
2023/04/10 08:54:04;;;;;;;21.93;14.80;;;11.90;68.50;;;;;;5084360;28;20455;-63
2023/04/10 08:56:39;;;;;;;19.40;13.43;;;11.90;68.40;;;;;;5080610;28;20847;-63
2023/04/10 08:59:21;;;;;;;21.17;13.93;;;11.90;68.30;;;;;;5082171;28;20828;-63
2023/04/10 09:01:53;;;;;;;22.40;15.50;;;12.00;68.20;;;;;;5062483;28;20575;-63
2023/04/10 09:04:30;;;;;;;19.47;13.93;;;12.10;68.20;;;;;;5083496;28;20491;-62
2023/04/10 09:07:10;;;;;;;26.03;15.77;;;12.20;68.00;;;;;;5086941;28;20466;-63
2023/04/10 09:09:49;;;;;;;25.03;15.40;;;12.30;67.90;;;;;;5080419;28;20521;-63
2023/04/10 09:12:31;;;;;;;20.40;14.23;;;12.30;67.70;;;;;;5085318;28;20458;-62
2023/04/10 09:15:07;;;;;;;23.97;15.10;;;12.40;67.40;;;;;;5081708;28;20447;-63
2023/04/10 09:17:55;;;;;;;23.97;14.67;;;12.40;67.30;;;;;;5079487;28;20463;-62
2023/04/10 09:20:35;;;;;;;19.60;13.17;;;12.50;67.40;;;;;;5083352;28;20523;-63
2023/04/10 09:23:27;;;;;;;19.47;13.20;;;12.60;67.20;;;;;;5079981;28;20835;-62
2023/04/10 09:25:59;;;;;;;17.57;12.43;;;12.70;66.90;;;;;;5081573;28;20495;-63
2023/04/10 09:29:00;;;;;;;18.10;12.10;;;12.80;66.90;;;;;;5079315;28;20479;-62
2023/04/10 09:31:38;;;;;;;16.00;10.30;;;12.90;66.50;;;;;;5077385;28;20506;-62
2023/04/10 09:34:20;;;;;;;18.70;11.60;;;12.90;66.00;;;;;;5079920;28;20466;-62
2023/04/10 09:37:00;;;;;;;14.77;10.00;;;13.00;66.00;;;;;;5079189;28;20459;-62
2023/04/10 09:39:41;;;;;;;14.40;9.57;;;13.10;65.80;;;;;;5077579;28;20479;-62
2023/04/10 09:42:32;;;;;;;14.47;10.07;;;13.20;65.50;;;;;;5078632;28;20469;-62
2023/04/10 09:45:05;;;;;;;14.80;9.57;;;13.30;65.10;;;;;;5082866;28;20835;-62
2023/04/10 09:47:41;;;;;;;13.90;9.23;;;13.40;65.00;;;;;;5080827;28;20465;-62
2023/04/10 09:50:17;;;;;;;16.23;10.20;;;13.50;64.40;;;;;;5083858;28;20473;-63
2023/04/10 09:53:01;;;;;;;14.83;9.17;;;13.50;64.10;;;;;;5081143;28;20479;-62
2023/04/10 09:55:36;;;;;;;14.43;8.87;;;13.60;64.10;;;;;;5076588;28;20515;-62
2023/04/10 09:58:18;;;;;;;14.30;8.80;;;13.70;64.10;;;;;;5081998;28;20472;-62
2023/04/10 10:00:51;;;;;;;13.90;9.07;;;13.80;63.80;;;;;;5081042;28;20489;-63
2023/04/10 10:03:27;;;;;;;14.27;9.37;;;13.80;63.70;;;;;;5078349;28;20487;-63
2023/04/10 10:06:04;;;;;;;14.33;9.17;;;13.90;63.40;;;;;;5081044;28;20480;-63
2023/04/10 10:08:37;;;;;;;11.17;7.73;;;13.90;63.10;;;;;;5078346;28;20472;-63
2023/04/10 10:11:10;;;;;;;13.63;9.13;;;13.90;62.90;;;;;;5081578;28;20496;-63
2023/04/10 10:13:50;;;;;;;13.10;8.23;;;14.00;62.60;;;;;;5083465;28;20461;-63
2023/04/10 10:16:27;;;;;;;16.53;9.07;;;14.00;62.60;;;;;;5079039;28;20976;-63
2023/04/10 10:19:09;;;;;;;12.07;9.00;;;14.10;61.90;;;;;;5078827;28;20467;-63
2023/04/10 10:21:49;;;;;;;11.13;7.30;;;14.10;62.20;;;;;;5069022;28;20461;-63
2023/04/10 10:24:26;;;;;;;12.57;7.60;;;14.10;61.80;;;;;;5080451;28;20465;-63
2023/04/10 10:26:58;;;;;;;13.40;7.93;;;14.20;61.40;;;;;;5088473;28;20996;-63
2023/04/10 10:29:42;;;;;;;9.77;6.70;;;14.30;61.40;;;;;;5080762;28;21119;-63
2023/04/10 10:32:14;;;;;;;13.33;8.30;;;14.30;61.10;;;;;;5065672;28;20468;-63
2023/04/10 10:34:52;;;;;;;10.97;6.80;;;14.40;60.90;;;;;;5077560;28;20487;-63
2023/04/10 10:37:50;;;;;;;10.70;6.67;;;14.40;60.40;;;;;;5062606;28;20996;-63
2023/04/10 10:40:32;;;;;;;11.20;7.17;;;14.50;60.00;;;;;;5078137;28;20463;-63
2023/04/10 10:43:13;;;;;;;10.80;6.90;;;14.50;60.10;;;;;;5077853;28;20464;-63
2023/04/10 10:45:59;;;;;;;9.97;6.10;;;14.60;59.10;;;;;;5086004;28;20981;-63
2023/04/10 10:48:36;;;;;;;9.30;5.97;;;14.60;59.40;;;;;;5080494;28;20459;-63
2023/04/10 10:51:12;;;;;;;9.17;6.20;;;14.60;59.70;;;;;;5079597;28;20506;-63
2023/04/10 10:53:51;;;;;;;10.90;7.07;;;14.60;59.60;;;;;;5080328;28;20475;-63
2023/04/10 10:56:38;;;;;;;11.33;7.00;;;14.60;58.70;;;;;;5060298;28;20545;-63
2023/04/10 10:59:17;;;;;;;11.07;7.20;;;14.70;58.70;;;;;;5058404;28;20477;-63
2023/04/10 11:02:17;;;;;;;9.40;6.30;;;14.70;58.80;;;;;;5078491;28;20576;-63
2023/04/10 11:05:08;;;;;;;10.60;6.70;;;14.80;58.60;;;;;;5082956;28;20493;-63
2023/04/10 11:08:12;;;;;;;9.63;6.20;;;14.80;58.90;;;;;;5076919;28;20455;-63
2023/04/10 11:11:04;;;;;;;11.27;7.43;;;14.90;58.70;;;;;;5079138;28;20496;-63
2023/04/10 11:13:45;;;;;;;10.23;6.50;;;15.00;59.10;;;;;;5084156;28;20461;-63
2023/04/10 11:16:32;;;;;;;10.43;6.60;;;15.00;58.90;;;;;;5084504;28;20994;-63
2023/04/10 11:19:21;;;;;;;9.83;6.53;;;15.10;58.60;;;;;;5083843;28;20554;-63
2023/04/10 11:22:21;;;;;;;10.90;7.00;;;15.10;58.60;;;;;;5086827;28;20468;-64
2023/04/10 11:25:09;;;;;;;11.80;7.77;;;15.20;58.40;;;;;;5080004;28;20777;-63
2023/04/10 11:27:51;;;;;;;11.03;6.77;;;15.20;58.10;;;;;;5085634;28;20607;-64
2023/04/10 11:30:32;;;;;;;10.73;6.90;;;15.20;58.30;;;;;;5081289;28;20848;-64
2023/04/10 11:33:10;;;;;;;11.70;7.57;;;15.30;58.20;;;;;;5080615;28;20518;-62
2023/04/10 11:35:47;;;;;;;9.13;6.40;;;15.30;58.20;;;;;;5087840;28;20457;-64
2023/04/10 11:38:27;;;;;;;11.23;6.97;;;15.30;58.10;;;;;;5081978;28;21298;-64
2023/04/10 11:41:08;;;;;;;9.63;6.70;;;15.30;58.20;;;;;;5081047;28;20555;-62
2023/04/10 11:43:45;;;;;;;10.60;6.80;;;15.30;57.80;;;;;;5081131;28;20456;-61
2023/04/10 11:46:18;;;;;;;10.80;7.20;;;15.30;57.70;;;;;;5082011;28;20482;-61
2023/04/10 11:48:52;;;;;;;10.70;6.90;;;15.30;57.80;;;;;;5086210;28;20475;-62
2023/04/10 11:51:38;;;;;;;10.00;6.70;;;15.30;58.10;;;;;;5082541;28;20945;-61
2023/04/10 11:54:19;;;;;;;11.80;6.80;;;15.40;57.80;;;;;;5091106;28;20457;-63
2023/04/10 11:57:14;;;;;;;9.00;5.10;;;15.40;57.30;;;;;;5085564;28;20471;-63
2023/04/10 11:59:53;;;;;;;9.60;5.70;;;15.50;56.70;;;;;;5085145;28;20516;-63
2023/04/10 12:02:26;;;;;;;10.40;6.27;;;15.50;57.00;;;;;;5085178;28;20476;-63
2023/04/10 12:04:59;;;;;;;9.00;6.00;;;15.60;57.00;;;;;;5080035;28;20452;-63
2023/04/10 12:07:37;;;;;;;9.73;6.43;;;15.70;56.50;;;;;;5085120;28;20490;-63
2023/04/10 12:10:09;;;;;;;8.03;5.30;;;15.80;56.40;;;;;;5082543;28;20516;-62
2023/04/10 12:12:49;;;;;;;7.70;4.40;;;15.80;56.50;;;;;;5083234;28;20456;-62
2023/04/10 12:15:39;;;;;;;8.97;5.33;;;15.80;55.90;;;;;;5083394;28;20521;-62
2023/04/10 12:18:14;;;;;;;9.63;5.90;;;15.90;55.80;;;;;;5081849;28;20455;-62
2023/04/10 12:20:47;;;;;;;11.60;7.50;;;15.90;55.70;;;;;;5084374;28;20645;-62
2023/04/10 12:23:20;;;;;;;10.80;6.50;;;15.90;55.40;;;;;;5077492;28;20972;-62
2023/04/10 12:25:50;;;;;;;8.97;5.40;;;15.90;55.50;;;;;;5082309;28;20512;-63
2023/04/10 12:28:26;;;;;;;8.63;5.23;;;16.00;55.30;;;;;;5081524;28;20552;-62
2023/04/10 12:30:59;;;;;;;9.17;5.53;;;16.00;55.20;;;;;;5081008;28;20553;-62
2023/04/10 12:33:34;;;;;;;7.77;4.90;;;16.00;54.70;;;;;;5081434;28;20530;-62
2023/04/10 12:36:22;;;;;;;8.93;5.47;;;16.10;54.90;;;;;;5082914;28;21149;-62
2023/04/10 12:38:57;;;;;;;10.67;6.30;;;16.10;54.70;;;;;;5085673;28;20944;-63
2023/04/10 12:41:30;;;;;;;10.23;6.37;;;16.10;54.70;;;;;;5079890;28;20467;-62
2023/04/10 12:44:15;;;;;;;10.50;6.80;;;16.10;54.50;;;;;;5083888;28;20489;-63
2023/04/10 12:47:01;;;;;;;9.70;5.90;;;16.10;54.60;;;;;;5084676;28;20491;-62
2023/04/10 12:49:33;;;;;;;9.30;6.10;;;16.20;54.80;;;;;;5082566;28;20453;-62
2023/04/10 12:52:10;;;;;;;8.90;5.50;;;16.20;54.80;;;;;;5083789;28;20460;-62
2023/04/10 12:54:49;;;;;;;9.13;5.63;;;16.30;54.60;;;;;;5081731;28;20489;-62
2023/04/10 12:57:32;;;;;;;8.37;5.50;;;16.30;54.70;;;;;;5085302;28;20928;-62
2023/04/10 13:00:08;;;;;;;9.10;4.80;;;16.30;54.80;;;;;;5079673;28;20457;-62
2023/04/10 13:02:40;;;;;;;8.97;4.67;;;16.30;54.70;;;;;;5083911;28;20468;-63
2023/04/10 13:08:09;;;;;;;7.40;4.20;;;16.40;54.80;;;;;;5079158;28;20493;-62
2023/04/10 13:10:45;;;;;;;7.60;4.77;;;16.40;54.70;;;;;;5084296;28;20461;-62
2023/04/10 13:13:19;;;;;;;7.50;4.73;;;16.40;54.70;;;;;;5081955;28;20463;-62
2023/04/10 13:15:51;;;;;;;8.00;4.47;;;16.50;54.50;;;;;;5078642;28;20555;-62
2023/04/10 13:18:26;;;;;;;10.87;3.90;;;16.50;54.30;;;;;;5082207;28;20444;-62
2023/04/10 13:20:59;;;;;;;8.60;4.30;;;16.50;54.20;;;;;;5083793;28;20473;-62
2023/04/10 13:23:31;;;;;;;7.67;4.73;;;16.50;54.00;;;;;;5077928;28;20492;-62
2023/04/10 13:26:03;;;;;;;7.90;4.60;;;16.40;53.80;;;;;;5081759;28;20459;-63
2023/04/10 13:28:48;;;;;;;8.87;4.90;;;16.50;54.00;;;;;;5083491;28;20509;-62
2023/04/10 13:31:23;;;;;;;6.87;4.00;;;16.50;53.70;;;;;;5078345;28;20499;-62
2023/04/10 13:33:55;;;;;;;7.30;4.30;;;16.50;53.70;;;;;;5077053;28;20449;-63
2023/04/10 13:36:25;;;;;;;7.87;4.53;;;16.50;53.50;;;;;;5081925;28;20589;-63
2023/04/10 13:38:58;;;;;;;7.33;4.30;;;16.50;53.70;;;;;;5079370;28;20514;-62
2023/04/10 13:41:37;;;;;;;7.13;4.53;;;16.60;53.70;;;;;;5079107;28;20551;-62
2023/04/10 13:44:17;;;;;;;7.70;4.80;;;16.60;53.80;;;;;;5077438;28;20526;-62